메인 페이지
METAR-TAF:

METAR-TAF

공항 :

Lakeland, 플로리다, 미국

위도: 27-59N, 경도: 082-01W, 고도: 43m

현재 날씨관측

예보는 43분 전, 22:45시(UTC)에 발표되었습니다.
서남서16kt, 순간 최대 풍속 25kt
온도 27°C
습도 70%
기압 1008 hPa
시정: 16.1km
고도 2600ft 상공 구름 많음

METAR: KLAL 312245Z 24016G25KT 10SM BKN026 27/21 A2978

시각: 19:28 (23:28 UTC)

예보

예보는 4 시간 3분 전, 19:25시(UTC)에 발표되었습니다.
예보 대상 시간: 31일 19시부터 01일 18시까지 (UTC)
14kt, 순간 최대 풍속 20kt
시정: 10km
고도 4000ft 상공 구름 많음
고도 25000ft 상공 흐림
일시적
31일 19시부터 31일 21시까지 (UTC)
고도 2500ft 상공 구름 많음
01일 0100시부터 (UTC)
15kt, 순간 최대 풍속 20kt
시정: 9.7km
고도 1500ft 상공 구름 보통, 적란운.
고도 3000ft 상공 구름 많음
고도 10000ft 상공 흐림
소나기, 시계 내 뇌우
01일 0500시부터 (UTC)
13kt, 순간 최대 풍속 18kt
시정: 10km
고도 2000ft 상공 구름 보통
고도 4000ft 상공 구름 많음
01일 1200시부터 (UTC)
북북서10kt, 순간 최대 풍속 15kt
시정: 10km
고도 2000ft 상공 구름 조금

TAF: KLAL 311925Z 3119/0118 26014G20KT P6SM BKN040 OVC250 TEMPO 3119/3121 BKN025 FM010100 26015G20KT 6SM SHRA VCTS SCT015CB BKN030 OVC100 FM010500 28013G18KT P6SM SCT020 BKN040 FM011200 34010G15KT P6SM FEW020

4,000개 이상의 공항 관측 자료 및 예보 (METAR 및 TAF 보고).

지도상에서 검색 가능한 기상관측소가 노란 점과 빨간 점으로 표시되어 있습니다.

기상관측소 명을 보려면 표시 위로 마우스를 이동하세요.

날씨 관측과 예보를 보려면 클릭하세요.

지도 변경 : 확대하려면 엑스 표시가 있는 녹색 버튼, 축소하려면 빼기 표시가 있는 녹색 버튼, 다음 페이지의 지도를 보려면 녹색 화살표를 클릭하세요.


METAR-TAF: